sensor_id;sensor_type;location;lat;lon;timestamp;P1;durP1;ratioP1;P2;durP2;ratioP2
11964;SDS011;6042;41.326;19.826;2023-02-26T00:01:43;5.37;;;2.67;;
11964;SDS011;6042;41.326;19.826;2023-02-26T00:04:12;4.17;;;2.23;;
11964;SDS011;6042;41.326;19.826;2023-02-26T00:06:41;19.50;;;3.10;;
11964;SDS011;6042;41.326;19.826;2023-02-26T00:09:22;7.47;;;2.10;;
11964;SDS011;6042;41.326;19.826;2023-02-26T00:11:52;6.00;;;2.30;;
11964;SDS011;6042;41.326;19.826;2023-02-26T00:14:21;9.10;;;2.67;;
11964;SDS011;6042;41.326;19.826;2023-02-26T00:16:52;6.30;;;2.00;;
11964;SDS011;6042;41.326;19.826;2023-02-26T00:19:33;6.60;;;2.57;;
11964;SDS011;6042;41.326;19.826;2023-02-26T00:22:03;8.60;;;2.60;;
11964;SDS011;6042;41.326;19.826;2023-02-26T00:24:32;5.17;;;2.50;;
11964;SDS011;6042;41.326;19.826;2023-02-26T00:27:01;9.07;;;2.80;;
11964;SDS011;6042;41.326;19.826;2023-02-26T00:29:30;8.70;;;3.07;;
11964;SDS011;6042;41.326;19.826;2023-02-26T00:31:59;8.37;;;2.90;;
11964;SDS011;6042;41.326;19.826;2023-02-26T00:34:28;5.87;;;2.43;;
11964;SDS011;6042;41.326;19.826;2023-02-26T00:37:01;8.00;;;3.33;;
11964;SDS011;6042;41.326;19.826;2023-02-26T00:39:39;8.80;;;2.70;;
11964;SDS011;6042;41.326;19.826;2023-02-26T00:42:16;4.93;;;2.20;;
11964;SDS011;6042;41.326;19.826;2023-02-26T00:44:45;10.60;;;2.63;;
11964;SDS011;6042;41.326;19.826;2023-02-26T00:47:16;3.07;;;2.40;;
11964;SDS011;6042;41.326;19.826;2023-02-26T00:49:54;5.13;;;2.30;;
11964;SDS011;6042;41.326;19.826;2023-02-26T00:52:32;3.63;;;2.27;;
11964;SDS011;6042;41.326;19.826;2023-02-26T00:55:09;9.03;;;2.67;;
11964;SDS011;6042;41.326;19.826;2023-02-26T00:57:38;7.80;;;2.37;;
11964;SDS011;6042;41.326;19.826;2023-02-26T01:00:07;3.47;;;2.27;;
11964;SDS011;6042;41.326;19.826;2023-02-26T01:02:37;5.83;;;2.40;;
11964;SDS011;6042;41.326;19.826;2023-02-26T01:05:07;7.37;;;2.60;;
11964;SDS011;6042;41.326;19.826;2023-02-26T01:07:39;6.50;;;2.30;;
11964;SDS011;6042;41.326;19.826;2023-02-26T01:10:11;8.13;;;2.60;;
11964;SDS011;6042;41.326;19.826;2023-02-26T01:12:42;4.93;;;2.43;;
11964;SDS011;6042;41.326;19.826;2023-02-26T01:15:11;11.30;;;2.83;;
11964;SDS011;6042;41.326;19.826;2023-02-26T01:17:43;5.47;;;2.67;;
11964;SDS011;6042;41.326;19.826;2023-02-26T01:20:15;6.03;;;2.73;;
11964;SDS011;6042;41.326;19.826;2023-02-26T01:22:49;4.33;;;2.00;;
11964;SDS011;6042;41.326;19.826;2023-02-26T01:25:23;4.97;;;2.10;;
11964;SDS011;6042;41.326;19.826;2023-02-26T01:27:55;4.77;;;2.30;;
11964;SDS011;6042;41.326;19.826;2023-02-26T01:30:24;10.07;;;2.60;;
11964;SDS011;6042;41.326;19.826;2023-02-26T01:32:56;6.43;;;2.50;;
11964;SDS011;6042;41.326;19.826;2023-02-26T01:35:31;6.37;;;2.50;;
11964;SDS011;6042;41.326;19.826;2023-02-26T01:38:12;6.90;;;2.00;;
11964;SDS011;6042;41.326;19.826;2023-02-26T01:41:09;7.07;;;2.37;;
11964;SDS011;6042;41.326;19.826;2023-02-26T01:43:50;5.00;;;2.27;;
11964;SDS011;6042;41.326;19.826;2023-02-26T01:46:30;8.60;;;2.10;;
11964;SDS011;6042;41.326;19.826;2023-02-26T01:49:04;7.47;;;2.70;;
11964;SDS011;6042;41.326;19.826;2023-02-26T01:51:40;7.40;;;2.60;;
11964;SDS011;6042;41.326;19.826;2023-02-26T01:54:11;9.07;;;2.60;;
11964;SDS011;6042;41.326;19.826;2023-02-26T01:56:41;6.83;;;2.53;;
11964;SDS011;6042;41.326;19.826;2023-02-26T01:59:13;7.47;;;2.77;;
11964;SDS011;6042;41.326;19.826;2023-02-26T02:01:43;6.73;;;2.30;;
11964;SDS011;6042;41.326;19.826;2023-02-26T02:04:12;8.93;;;2.87;;
11964;SDS011;6042;41.326;19.826;2023-02-26T02:06:42;13.60;;;2.67;;
11964;SDS011;6042;41.326;19.826;2023-02-26T02:09:11;11.90;;;2.70;;
11964;SDS011;6042;41.326;19.826;2023-02-26T02:11:44;11.70;;;2.53;;
11964;SDS011;6042;41.326;19.826;2023-02-26T02:14:23;13.83;;;3.23;;
11964;SDS011;6042;41.326;19.826;2023-02-26T02:16:58;13.27;;;3.10;;
11964;SDS011;6042;41.326;19.826;2023-02-26T02:19:39;11.67;;;2.43;;
11964;SDS011;6042;41.326;19.826;2023-02-26T02:22:30;9.97;;;2.83;;
11964;SDS011;6042;41.326;19.826;2023-02-26T02:25:19;14.53;;;3.53;;
11964;SDS011;6042;41.326;19.826;2023-02-26T02:28:19;7.37;;;2.83;;
11964;SDS011;6042;41.326;19.826;2023-02-26T02:31:00;11.27;;;2.73;;
11964;SDS011;6042;41.326;19.826;2023-02-26T02:33:38;12.30;;;2.60;;
11964;SDS011;6042;41.326;19.826;2023-02-26T02:36:14;15.80;;;3.67;;
11964;SDS011;6042;41.326;19.826;2023-02-26T02:38:48;9.50;;;3.07;;
11964;SDS011;6042;41.326;19.826;2023-02-26T02:41:22;13.67;;;3.03;;
11964;SDS011;6042;41.326;19.826;2023-02-26T02:43:55;10.77;;;2.80;;
11964;SDS011;6042;41.326;19.826;2023-02-26T02:46:29;10.83;;;3.17;;
11964;SDS011;6042;41.326;19.826;2023-02-26T02:49:00;13.60;;;2.63;;
11964;SDS011;6042;41.326;19.826;2023-02-26T02:51:32;12.60;;;2.90;;
11964;SDS011;6042;41.326;19.826;2023-02-26T02:54:05;10.60;;;3.10;;
11964;SDS011;6042;41.326;19.826;2023-02-26T02:56:40;8.83;;;2.50;;
11964;SDS011;6042;41.326;19.826;2023-02-26T02:59:15;9.57;;;2.60;;
11964;SDS011;6042;41.326;19.826;2023-02-26T03:01:50;12.83;;;2.87;;
11964;SDS011;6042;41.326;19.826;2023-02-26T03:04:25;11.17;;;2.90;;
11964;SDS011;6042;41.326;19.826;2023-02-26T03:06:56;12.90;;;3.30;;
11964;SDS011;6042;41.326;19.826;2023-02-26T03:09:25;14.77;;;2.63;;
11964;SDS011;6042;41.326;19.826;2023-02-26T03:11:53;11.33;;;2.60;;
11964;SDS011;6042;41.326;19.826;2023-02-26T03:14:22;9.90;;;2.83;;
11964;SDS011;6042;41.326;19.826;2023-02-26T03:16:59;16.10;;;3.67;;
11964;SDS011;6042;41.326;19.826;2023-02-26T03:19:43;10.83;;;2.63;;
11964;SDS011;6042;41.326;19.826;2023-02-26T03:22:23;12.47;;;2.97;;
11964;SDS011;6042;41.326;19.826;2023-02-26T03:24:59;12.47;;;3.07;;
11964;SDS011;6042;41.326;19.826;2023-02-26T03:27:35;7.03;;;2.20;;
11964;SDS011;6042;41.326;19.826;2023-02-26T03:30:13;9.23;;;2.87;;
11964;SDS011;6042;41.326;19.826;2023-02-26T03:32:51;12.37;;;3.17;;
11964;SDS011;6042;41.326;19.826;2023-02-26T03:35:27;17.97;;;3.37;;
11964;SDS011;6042;41.326;19.826;2023-02-26T03:38:01;12.67;;;2.67;;
11964;SDS011;6042;41.326;19.826;2023-02-26T03:40:34;15.37;;;3.20;;
11964;SDS011;6042;41.326;19.826;2023-02-26T03:43:10;11.53;;;3.03;;
11964;SDS011;6042;41.326;19.826;2023-02-26T03:45:44;21.57;;;3.60;;
11964;SDS011;6042;41.326;19.826;2023-02-26T03:48:18;11.47;;;2.97;;
11964;SDS011;6042;41.326;19.826;2023-02-26T03:50:53;10.10;;;2.60;;
11964;SDS011;6042;41.326;19.826;2023-02-26T03:53:46;13.10;;;2.90;;
11964;SDS011;6042;41.326;19.826;2023-02-26T03:56:23;7.17;;;2.40;;
11964;SDS011;6042;41.326;19.826;2023-02-26T03:58:58;7.37;;;2.77;;
11964;SDS011;6042;41.326;19.826;2023-02-26T04:01:52;8.97;;;2.93;;
11964;SDS011;6042;41.326;19.826;2023-02-26T04:04:27;12.00;;;2.90;;
11964;SDS011;6042;41.326;19.826;2023-02-26T04:07:00;10.57;;;3.07;;
11964;SDS011;6042;41.326;19.826;2023-02-26T04:09:29;6.83;;;2.70;;
11964;SDS011;6042;41.326;19.826;2023-02-26T04:11:58;8.77;;;2.83;;
11964;SDS011;6042;41.326;19.826;2023-02-26T04:14:26;10.40;;;2.83;;
11964;SDS011;6042;41.326;19.826;2023-02-26T04:16:55;12.80;;;2.93;;
11964;SDS011;6042;41.326;19.826;2023-02-26T04:19:23;10.13;;;3.20;;
11964;SDS011;6042;41.326;19.826;2023-02-26T04:21:53;14.77;;;2.93;;
11964;SDS011;6042;41.326;19.826;2023-02-26T04:24:21;14.20;;;2.90;;
11964;SDS011;6042;41.326;19.826;2023-02-26T04:26:50;12.40;;;3.27;;
11964;SDS011;6042;41.326;19.826;2023-02-26T04:29:19;15.50;;;3.27;;
11964;SDS011;6042;41.326;19.826;2023-02-26T04:31:47;8.13;;;2.83;;
11964;SDS011;6042;41.326;19.826;2023-02-26T04:34:16;17.73;;;2.87;;
11964;SDS011;6042;41.326;19.826;2023-02-26T04:36:45;17.63;;;3.17;;
11964;SDS011;6042;41.326;19.826;2023-02-26T04:39:15;11.47;;;2.80;;
11964;SDS011;6042;41.326;19.826;2023-02-26T04:41:43;8.07;;;2.87;;
11964;SDS011;6042;41.326;19.826;2023-02-26T04:44:11;9.13;;;2.90;;
11964;SDS011;6042;41.326;19.826;2023-02-26T04:46:40;12.00;;;2.80;;
11964;SDS011;6042;41.326;19.826;2023-02-26T04:49:09;13.80;;;2.97;;
11964;SDS011;6042;41.326;19.826;2023-02-26T04:51:41;8.70;;;2.67;;
11964;SDS011;6042;41.326;19.826;2023-02-26T04:54:14;12.17;;;2.40;;
11964;SDS011;6042;41.326;19.826;2023-02-26T04:56:43;7.93;;;2.33;;
11964;SDS011;6042;41.326;19.826;2023-02-26T04:59:11;13.60;;;2.63;;
11964;SDS011;6042;41.326;19.826;2023-02-26T05:01:41;10.57;;;2.67;;
11964;SDS011;6042;41.326;19.826;2023-02-26T05:04:10;15.90;;;2.93;;
11964;SDS011;6042;41.326;19.826;2023-02-26T05:06:41;11.73;;;2.63;;
11964;SDS011;6042;41.326;19.826;2023-02-26T05:09:10;9.07;;;2.27;;
11964;SDS011;6042;41.326;19.826;2023-02-26T05:11:39;9.33;;;2.40;;
11964;SDS011;6042;41.326;19.826;2023-02-26T05:14:13;10.63;;;2.77;;
11964;SDS011;6042;41.326;19.826;2023-02-26T05:16:43;8.37;;;2.67;;
11964;SDS011;6042;41.326;19.826;2023-02-26T05:19:11;9.50;;;2.47;;
11964;SDS011;6042;41.326;19.826;2023-02-26T05:21:40;9.87;;;2.27;;
11964;SDS011;6042;41.326;19.826;2023-02-26T05:24:08;9.33;;;2.43;;
11964;SDS011;6042;41.326;19.826;2023-02-26T05:26:37;8.40;;;2.17;;
11964;SDS011;6042;41.326;19.826;2023-02-26T05:29:06;9.77;;;2.70;;
11964;SDS011;6042;41.326;19.826;2023-02-26T05:31:35;12.47;;;2.70;;
11964;SDS011;6042;41.326;19.826;2023-02-26T05:34:04;9.10;;;2.17;;
11964;SDS011;6042;41.326;19.826;2023-02-26T05:36:32;12.20;;;3.20;;
11964;SDS011;6042;41.326;19.826;2023-02-26T05:39:01;7.43;;;2.03;;
11964;SDS011;6042;41.326;19.826;2023-02-26T05:41:30;13.10;;;2.63;;
11964;SDS011;6042;41.326;19.826;2023-02-26T05:43:59;11.80;;;2.67;;
11964;SDS011;6042;41.326;19.826;2023-02-26T05:46:29;11.33;;;2.57;;
11964;SDS011;6042;41.326;19.826;2023-02-26T05:48:58;5.53;;;2.10;;
11964;SDS011;6042;41.326;19.826;2023-02-26T05:51:30;7.30;;;2.10;;
11964;SDS011;6042;41.326;19.826;2023-02-26T05:53:59;12.80;;;2.60;;
11964;SDS011;6042;41.326;19.826;2023-02-26T05:56:27;5.53;;;2.37;;
11964;SDS011;6042;41.326;19.826;2023-02-26T05:58:55;8.17;;;2.37;;
11964;SDS011;6042;41.326;19.826;2023-02-26T06:01:24;3.67;;;2.13;;
11964;SDS011;6042;41.326;19.826;2023-02-26T06:03:54;9.27;;;2.37;;
11964;SDS011;6042;41.326;19.826;2023-02-26T06:06:22;7.63;;;2.73;;
11964;SDS011;6042;41.326;19.826;2023-02-26T06:08:52;6.13;;;2.40;;
11964;SDS011;6042;41.326;19.826;2023-02-26T06:11:21;13.20;;;2.97;;
11964;SDS011;6042;41.326;19.826;2023-02-26T06:13:49;7.20;;;2.83;;
11964;SDS011;6042;41.326;19.826;2023-02-26T06:16:17;9.97;;;2.40;;
11964;SDS011;6042;41.326;19.826;2023-02-26T06:18:46;10.10;;;2.47;;
11964;SDS011;6042;41.326;19.826;2023-02-26T06:21:16;17.30;;;3.90;;
11964;SDS011;6042;41.326;19.826;2023-02-26T06:23:45;11.17;;;1.93;;
11964;SDS011;6042;41.326;19.826;2023-02-26T06:26:13;8.90;;;2.53;;
11964;SDS011;6042;41.326;19.826;2023-02-26T06:28:42;8.30;;;2.33;;
11964;SDS011;6042;41.326;19.826;2023-02-26T06:31:10;7.67;;;2.43;;
11964;SDS011;6042;41.326;19.826;2023-02-26T06:33:39;11.10;;;2.10;;
11964;SDS011;6042;41.326;19.826;2023-02-26T06:36:07;8.03;;;2.20;;
11964;SDS011;6042;41.326;19.826;2023-02-26T06:38:37;9.50;;;2.40;;
11964;SDS011;6042;41.326;19.826;2023-02-26T06:41:06;6.87;;;1.90;;
11964;SDS011;6042;41.326;19.826;2023-02-26T06:43:34;9.67;;;2.67;;
11964;SDS011;6042;41.326;19.826;2023-02-26T06:46:05;8.10;;;2.37;;
11964;SDS011;6042;41.326;19.826;2023-02-26T06:48:36;6.27;;;1.83;;
11964;SDS011;6042;41.326;19.826;2023-02-26T06:51:05;11.90;;;2.63;;
11964;SDS011;6042;41.326;19.826;2023-02-26T06:53:38;5.97;;;2.43;;
11964;SDS011;6042;41.326;19.826;2023-02-26T06:56:07;7.77;;;2.03;;
11964;SDS011;6042;41.326;19.826;2023-02-26T06:58:35;7.27;;;2.20;;
11964;SDS011;6042;41.326;19.826;2023-02-26T07:01:03;6.40;;;2.20;;
11964;SDS011;6042;41.326;19.826;2023-02-26T07:03:32;4.63;;;2.10;;
11964;SDS011;6042;41.326;19.826;2023-02-26T07:06:00;6.40;;;2.03;;
11964;SDS011;6042;41.326;19.826;2023-02-26T07:08:51;7.00;;;2.30;;
11964;SDS011;6042;41.326;19.826;2023-02-26T07:11:19;11.60;;;3.17;;
11964;SDS011;6042;41.326;19.826;2023-02-26T07:13:48;8.87;;;2.53;;
11964;SDS011;6042;41.326;19.826;2023-02-26T07:16:17;10.60;;;2.40;;
11964;SDS011;6042;41.326;19.826;2023-02-26T07:18:46;6.90;;;2.20;;
11964;SDS011;6042;41.326;19.826;2023-02-26T07:21:14;6.60;;;2.70;;
11964;SDS011;6042;41.326;19.826;2023-02-26T07:23:43;5.40;;;2.17;;
11964;SDS011;6042;41.326;19.826;2023-02-26T07:26:13;16.80;;;2.87;;
11964;SDS011;6042;41.326;19.826;2023-02-26T07:28:43;14.30;;;3.07;;
11964;SDS011;6042;41.326;19.826;2023-02-26T07:31:11;27.60;;;4.13;;
11964;SDS011;6042;41.326;19.826;2023-02-26T07:33:43;4.43;;;2.70;;
11964;SDS011;6042;41.326;19.826;2023-02-26T07:36:12;5.63;;;2.20;;
11964;SDS011;6042;41.326;19.826;2023-02-26T07:38:40;5.30;;;1.90;;
11964;SDS011;6042;41.326;19.826;2023-02-26T07:41:09;5.43;;;2.20;;
11964;SDS011;6042;41.326;19.826;2023-02-26T07:43:39;9.07;;;2.43;;
11964;SDS011;6042;41.326;19.826;2023-02-26T07:46:08;6.40;;;2.20;;
11964;SDS011;6042;41.326;19.826;2023-02-26T07:48:36;6.07;;;2.23;;
11964;SDS011;6042;41.326;19.826;2023-02-26T07:51:05;6.67;;;2.30;;
11964;SDS011;6042;41.326;19.826;2023-02-26T07:53:33;7.53;;;2.23;;
11964;SDS011;6042;41.326;19.826;2023-02-26T07:56:02;4.20;;;1.93;;
11964;SDS011;6042;41.326;19.826;2023-02-26T07:58:31;9.40;;;3.40;;
11964;SDS011;6042;41.326;19.826;2023-02-26T08:01:01;5.27;;;2.10;;
11964;SDS011;6042;41.326;19.826;2023-02-26T08:03:30;8.67;;;2.37;;
11964;SDS011;6042;41.326;19.826;2023-02-26T08:05:58;7.50;;;2.30;;
11964;SDS011;6042;41.326;19.826;2023-02-26T08:08:27;9.40;;;2.10;;
11964;SDS011;6042;41.326;19.826;2023-02-26T08:10:57;4.87;;;2.20;;
11964;SDS011;6042;41.326;19.826;2023-02-26T08:13:27;12.03;;;3.20;;
11964;SDS011;6042;41.326;19.826;2023-02-26T08:15:55;7.30;;;2.33;;
11964;SDS011;6042;41.326;19.826;2023-02-26T08:18:25;5.77;;;1.90;;
11964;SDS011;6042;41.326;19.826;2023-02-26T08:20:53;7.73;;;2.30;;
11964;SDS011;6042;41.326;19.826;2023-02-26T08:23:22;8.07;;;2.13;;
11964;SDS011;6042;41.326;19.826;2023-02-26T08:25:58;10.37;;;2.53;;
11964;SDS011;6042;41.326;19.826;2023-02-26T08:28:28;6.43;;;2.13;;
11964;SDS011;6042;41.326;19.826;2023-02-26T08:30:56;7.90;;;2.50;;
11964;SDS011;6042;41.326;19.826;2023-02-26T08:33:26;10.50;;;2.70;;
11964;SDS011;6042;41.326;19.826;2023-02-26T08:35:56;4.27;;;2.10;;
11964;SDS011;6042;41.326;19.826;2023-02-26T08:38:24;8.90;;;2.30;;
11964;SDS011;6042;41.326;19.826;2023-02-26T08:40:53;6.57;;;2.50;;
11964;SDS011;6042;41.326;19.826;2023-02-26T08:43:22;7.50;;;2.30;;
11964;SDS011;6042;41.326;19.826;2023-02-26T08:45:51;4.30;;;2.20;;
11964;SDS011;6042;41.326;19.826;2023-02-26T08:48:20;10.67;;;2.80;;
11964;SDS011;6042;41.326;19.826;2023-02-26T08:50:49;7.37;;;2.50;;
11964;SDS011;6042;41.326;19.826;2023-02-26T08:53:18;7.87;;;2.50;;
11964;SDS011;6042;41.326;19.826;2023-02-26T08:55:47;6.00;;;2.27;;
11964;SDS011;6042;41.326;19.826;2023-02-26T08:58:15;7.43;;;2.13;;
11964;SDS011;6042;41.326;19.826;2023-02-26T09:00:44;8.43;;;3.17;;
11964;SDS011;6042;41.326;19.826;2023-02-26T09:03:13;8.67;;;2.73;;
11964;SDS011;6042;41.326;19.826;2023-02-26T09:05:42;9.23;;;2.70;;
11964;SDS011;6042;41.326;19.826;2023-02-26T09:08:12;8.57;;;2.60;;
11964;SDS011;6042;41.326;19.826;2023-02-26T09:10:41;6.43;;;2.50;;
11964;SDS011;6042;41.326;19.826;2023-02-26T09:13:10;8.43;;;2.77;;
11964;SDS011;6042;41.326;19.826;2023-02-26T09:15:38;12.00;;;2.83;;
11964;SDS011;6042;41.326;19.826;2023-02-26T09:18:09;14.67;;;3.43;;
11964;SDS011;6042;41.326;19.826;2023-02-26T09:20:41;15.67;;;3.30;;
11964;SDS011;6042;41.326;19.826;2023-02-26T09:23:11;23.93;;;4.17;;
11964;SDS011;6042;41.326;19.826;2023-02-26T09:25:40;12.47;;;3.17;;
11964;SDS011;6042;41.326;19.826;2023-02-26T09:28:09;17.87;;;4.17;;
11964;SDS011;6042;41.326;19.826;2023-02-26T09:30:37;15.43;;;3.10;;
11964;SDS011;6042;41.326;19.826;2023-02-26T09:33:06;11.67;;;3.13;;
11964;SDS011;6042;41.326;19.826;2023-02-26T09:35:35;8.37;;;2.83;;
11964;SDS011;6042;41.326;19.826;2023-02-26T09:38:03;12.23;;;3.10;;
11964;SDS011;6042;41.326;19.826;2023-02-26T09:40:38;13.17;;;2.97;;
11964;SDS011;6042;41.326;19.826;2023-02-26T09:43:20;18.73;;;3.77;;
11964;SDS011;6042;41.326;19.826;2023-02-26T09:45:58;11.93;;;3.20;;
11964;SDS011;6042;41.326;19.826;2023-02-26T09:48:31;12.63;;;3.47;;
11964;SDS011;6042;41.326;19.826;2023-02-26T09:51:08;9.50;;;3.17;;
11964;SDS011;6042;41.326;19.826;2023-02-26T09:53:44;11.07;;;3.33;;
11964;SDS011;6042;41.326;19.826;2023-02-26T09:56:17;13.87;;;3.50;;
11964;SDS011;6042;41.326;19.826;2023-02-26T09:58:49;9.90;;;3.60;;
11964;SDS011;6042;41.326;19.826;2023-02-26T10:01:21;17.77;;;3.57;;
11964;SDS011;6042;41.326;19.826;2023-02-26T10:03:58;14.20;;;3.57;;
11964;SDS011;6042;41.326;19.826;2023-02-26T10:06:37;14.03;;;3.23;;
11964;SDS011;6042;41.326;19.826;2023-02-26T10:09:19;19.67;;;4.87;;
11964;SDS011;6042;41.326;19.826;2023-02-26T10:11:59;22.07;;;4.37;;
11964;SDS011;6042;41.326;19.826;2023-02-26T10:14:33;18.50;;;5.03;;
11964;SDS011;6042;41.326;19.826;2023-02-26T10:17:06;20.23;;;4.90;;
11964;SDS011;6042;41.326;19.826;2023-02-26T10:19:42;17.60;;;3.80;;
11964;SDS011;6042;41.326;19.826;2023-02-26T10:22:15;18.73;;;4.60;;
11964;SDS011;6042;41.326;19.826;2023-02-26T10:24:51;35.47;;;5.73;;
11964;SDS011;6042;41.326;19.826;2023-02-26T10:27:38;12.27;;;4.37;;
11964;SDS011;6042;41.326;19.826;2023-02-26T10:30:13;20.67;;;4.90;;
11964;SDS011;6042;41.326;19.826;2023-02-26T10:32:50;23.60;;;4.60;;
11964;SDS011;6042;41.326;19.826;2023-02-26T10:35:26;17.70;;;3.63;;
11964;SDS011;6042;41.326;19.826;2023-02-26T10:37:59;19.33;;;4.23;;
11964;SDS011;6042;41.326;19.826;2023-02-26T10:40:31;20.00;;;5.23;;
11964;SDS011;6042;41.326;19.826;2023-02-26T10:43:07;16.67;;;4.77;;
11964;SDS011;6042;41.326;19.826;2023-02-26T10:45:44;15.77;;;4.53;;
11964;SDS011;6042;41.326;19.826;2023-02-26T10:48:26;18.07;;;4.93;;
11964;SDS011;6042;41.326;19.826;2023-02-26T10:51:09;14.97;;;4.37;;
11964;SDS011;6042;41.326;19.826;2023-02-26T10:53:41;22.73;;;4.80;;
11964;SDS011;6042;41.326;19.826;2023-02-26T10:56:14;19.20;;;4.20;;
11964;SDS011;6042;41.326;19.826;2023-02-26T10:58:46;10.70;;;4.00;;
11964;SDS011;6042;41.326;19.826;2023-02-26T11:01:16;16.27;;;4.70;;
11964;SDS011;6042;41.326;19.826;2023-02-26T11:03:46;16.23;;;4.27;;
11964;SDS011;6042;41.326;19.826;2023-02-26T11:06:18;13.77;;;4.10;;
11964;SDS011;6042;41.326;19.826;2023-02-26T11:08:51;19.77;;;4.23;;
11964;SDS011;6042;41.326;19.826;2023-02-26T11:11:34;20.77;;;4.93;;
11964;SDS011;6042;41.326;19.826;2023-02-26T11:14:05;13.47;;;4.00;;
11964;SDS011;6042;41.326;19.826;2023-02-26T11:16:35;17.13;;;4.30;;
11964;SDS011;6042;41.326;19.826;2023-02-26T11:19:10;19.43;;;4.43;;
11964;SDS011;6042;41.326;19.826;2023-02-26T11:21:40;15.80;;;4.37;;
11964;SDS011;6042;41.326;19.826;2023-02-26T11:24:14;19.37;;;4.77;;
11964;SDS011;6042;41.326;19.826;2023-02-26T11:26:47;23.63;;;5.53;;
11964;SDS011;6042;41.326;19.826;2023-02-26T11:29:19;24.63;;;5.80;;
11964;SDS011;6042;41.326;19.826;2023-02-26T11:31:49;16.97;;;4.43;;
11964;SDS011;6042;41.326;19.826;2023-02-26T11:34:20;31.33;;;5.63;;
11964;SDS011;6042;41.326;19.826;2023-02-26T11:36:51;20.77;;;4.77;;
11964;SDS011;6042;41.326;19.826;2023-02-26T11:39:24;27.00;;;5.80;;
11964;SDS011;6042;41.326;19.826;2023-02-26T11:41:54;23.30;;;5.50;;
11964;SDS011;6042;41.326;19.826;2023-02-26T11:44:29;20.20;;;5.27;;
11964;SDS011;6042;41.326;19.826;2023-02-26T11:47:04;26.53;;;5.77;;
11964;SDS011;6042;41.326;19.826;2023-02-26T11:49:34;28.77;;;6.37;;
11964;SDS011;6042;41.326;19.826;2023-02-26T11:52:18;22.37;;;5.37;;
11964;SDS011;6042;41.326;19.826;2023-02-26T11:54:49;27.13;;;6.80;;
11964;SDS011;6042;41.326;19.826;2023-02-26T11:57:22;23.57;;;6.03;;
11964;SDS011;6042;41.326;19.826;2023-02-26T11:59:54;29.13;;;6.17;;
11964;SDS011;6042;41.326;19.826;2023-02-26T12:02:26;20.60;;;6.10;;
11964;SDS011;6042;41.326;19.826;2023-02-26T12:05:01;22.27;;;5.10;;
11964;SDS011;6042;41.326;19.826;2023-02-26T12:07:32;34.70;;;6.13;;
11964;SDS011;6042;41.326;19.826;2023-02-26T12:10:01;42.67;;;7.20;;
11964;SDS011;6042;41.326;19.826;2023-02-26T12:12:33;38.13;;;7.20;;
11964;SDS011;6042;41.326;19.826;2023-02-26T12:15:15;35.77;;;8.10;;
11964;SDS011;6042;41.326;19.826;2023-02-26T12:18:03;33.47;;;7.73;;
11964;SDS011;6042;41.326;19.826;2023-02-26T12:20:51;48.00;;;8.50;;
11964;SDS011;6042;41.326;19.826;2023-02-26T12:23:43;32.57;;;7.63;;
11964;SDS011;6042;41.326;19.826;2023-02-26T12:26:36;33.93;;;7.07;;
11964;SDS011;6042;41.326;19.826;2023-02-26T12:32:11;30.63;;;7.57;;
11964;SDS011;6042;41.326;19.826;2023-02-26T12:37:47;34.83;;;7.10;;
11964;SDS011;6042;41.326;19.826;2023-02-26T12:43:32;29.97;;;6.77;;
11964;SDS011;6042;41.326;19.826;2023-02-26T12:46:09;36.70;;;6.87;;
11964;SDS011;6042;41.326;19.826;2023-02-26T12:49:03;42.83;;;8.67;;
11964;SDS011;6042;41.326;19.826;2023-02-26T12:51:49;37.63;;;8.40;;
11964;SDS011;6042;41.326;19.826;2023-02-26T12:54:34;44.77;;;12.33;;
11964;SDS011;6042;41.326;19.826;2023-02-26T12:57:16;43.87;;;8.57;;
11964;SDS011;6042;41.326;19.826;2023-02-26T13:00:02;37.40;;;8.43;;
11964;SDS011;6042;41.326;19.826;2023-02-26T13:03:08;37.40;;;8.83;;
11964;SDS011;6042;41.326;19.826;2023-02-26T13:06:01;49.00;;;9.10;;
11964;SDS011;6042;41.326;19.826;2023-02-26T13:08:44;40.67;;;7.40;;
11964;SDS011;6042;41.326;19.826;2023-02-26T13:11:29;38.87;;;7.90;;
11964;SDS011;6042;41.326;19.826;2023-02-26T13:14:16;38.10;;;8.63;;
11964;SDS011;6042;41.326;19.826;2023-02-26T13:16:53;36.87;;;8.90;;
11964;SDS011;6042;41.326;19.826;2023-02-26T13:19:30;41.87;;;8.53;;
11964;SDS011;6042;41.326;19.826;2023-02-26T13:22:14;38.83;;;8.00;;
11964;SDS011;6042;41.326;19.826;2023-02-26T13:24:46;38.77;;;8.50;;
11964;SDS011;6042;41.326;19.826;2023-02-26T13:27:21;52.37;;;8.97;;
11964;SDS011;6042;41.326;19.826;2023-02-26T13:30:05;39.60;;;9.20;;
11964;SDS011;6042;41.326;19.826;2023-02-26T13:32:45;36.07;;;8.70;;
11964;SDS011;6042;41.326;19.826;2023-02-26T13:35:18;46.03;;;9.50;;
11964;SDS011;6042;41.326;19.826;2023-02-26T13:37:50;47.57;;;9.50;;
11964;SDS011;6042;41.326;19.826;2023-02-26T13:40:25;39.43;;;8.37;;
11964;SDS011;6042;41.326;19.826;2023-02-26T13:43:08;49.13;;;9.37;;
11964;SDS011;6042;41.326;19.826;2023-02-26T13:45:45;40.07;;;8.27;;
11964;SDS011;6042;41.326;19.826;2023-02-26T13:48:21;44.73;;;9.83;;
11964;SDS011;6042;41.326;19.826;2023-02-26T13:51:03;48.27;;;8.93;;
11964;SDS011;6042;41.326;19.826;2023-02-26T13:53:50;49.33;;;10.83;;
11964;SDS011;6042;41.326;19.826;2023-02-26T13:56:22;47.63;;;10.10;;
11964;SDS011;6042;41.326;19.826;2023-02-26T14:02:00;50.50;;;10.30;;
11964;SDS011;6042;41.326;19.826;2023-02-26T14:04:30;42.87;;;8.73;;
11964;SDS011;6042;41.326;19.826;2023-02-26T14:07:15;53.27;;;10.53;;
11964;SDS011;6042;41.326;19.826;2023-02-26T14:10:13;60.10;;;10.00;;
11964;SDS011;6042;41.326;19.826;2023-02-26T14:12:43;60.03;;;10.80;;
11964;SDS011;6042;41.326;19.826;2023-02-26T14:18:18;60.57;;;10.70;;
11964;SDS011;6042;41.326;19.826;2023-02-26T14:20:51;60.73;;;11.27;;
11964;SDS011;6042;41.326;19.826;2023-02-26T14:23:40;63.57;;;11.13;;
11964;SDS011;6042;41.326;19.826;2023-02-26T14:26:15;64.53;;;11.27;;
11964;SDS011;6042;41.326;19.826;2023-02-26T14:28:53;62.67;;;15.93;;
11964;SDS011;6042;41.326;19.826;2023-02-26T14:31:24;70.30;;;11.70;;
11964;SDS011;6042;41.326;19.826;2023-02-26T14:33:58;79.87;;;12.73;;
11964;SDS011;6042;41.326;19.826;2023-02-26T14:36:42;67.43;;;12.10;;
11964;SDS011;6042;41.326;19.826;2023-02-26T14:39:24;66.73;;;13.37;;
11964;SDS011;6042;41.326;19.826;2023-02-26T14:41:59;69.63;;;12.60;;
11964;SDS011;6042;41.326;19.826;2023-02-26T14:44:33;70.17;;;13.37;;
11964;SDS011;6042;41.326;19.826;2023-02-26T14:47:06;80.67;;;12.27;;
11964;SDS011;6042;41.326;19.826;2023-02-26T14:49:36;72.53;;;12.00;;
11964;SDS011;6042;41.326;19.826;2023-02-26T14:52:17;71.80;;;13.70;;
11964;SDS011;6042;41.326;19.826;2023-02-26T14:55:17;78.80;;;13.23;;
11964;SDS011;6042;41.326;19.826;2023-02-26T14:58:07;70.23;;;13.27;;
11964;SDS011;6042;41.326;19.826;2023-02-26T15:00:44;85.00;;;13.67;;
11964;SDS011;6042;41.326;19.826;2023-02-26T15:03:34;87.07;;;15.40;;
11964;SDS011;6042;41.326;19.826;2023-02-26T15:06:30;69.33;;;13.00;;
11964;SDS011;6042;41.326;19.826;2023-02-26T15:09:24;66.50;;;12.50;;
11964;SDS011;6042;41.326;19.826;2023-02-26T15:12:05;72.50;;;12.87;;
11964;SDS011;6042;41.326;19.826;2023-02-26T15:14:52;75.13;;;13.80;;
11964;SDS011;6042;41.326;19.826;2023-02-26T15:17:32;92.20;;;14.27;;
11964;SDS011;6042;41.326;19.826;2023-02-26T15:20:17;76.53;;;12.63;;
11964;SDS011;6042;41.326;19.826;2023-02-26T15:22:59;76.33;;;14.37;;
11964;SDS011;6042;41.326;19.826;2023-02-26T15:25:37;82.00;;;13.87;;
11964;SDS011;6042;41.326;19.826;2023-02-26T15:28:11;83.53;;;16.40;;
11964;SDS011;6042;41.326;19.826;2023-02-26T15:30:46;78.87;;;14.20;;
11964;SDS011;6042;41.326;19.826;2023-02-26T15:33:16;76.77;;;13.57;;